Fort Simpson, Canada
Current Conditions -  °F | °C
As of 8:00 PM on Thursday 27 Nov 2014 (Local Time) from CYFS Reporting Station
Clear Clear  
Wind Chill: -26°   Ceiling: Unl
Heat Index: -26°   Visibility: 15mi
Dew Point: -33°   Wind: 0mph
Humidity: 69%   Direction: NA
Pressure: 30.49"   Gusts: NA
Location:  61.86°N, 121.35°W
Report Text: CYFS 280300Z 00000KT 15SM SKC M32/M36 A3049 RMK SLP357
Loading
Personal Weather Stations






























Interactive Weather Map New forecast layout! Learn more

10-Day Weather Forecast

Advertisements
Track Severe Weather on mobile